sensor_id;sensor_type;location;lat;lon;timestamp;P1;durP1;ratioP1;P2;durP2;ratioP2
32082;SDS011;18597;48.328;7.932;2023-03-02T00:01:40;39.57;;;21.60;;
32082;SDS011;18597;48.328;7.932;2023-03-02T00:04:33;58.53;;;23.30;;
32082;SDS011;18597;48.328;7.932;2023-03-02T00:07:07;40.67;;;22.20;;
32082;SDS011;18597;48.328;7.932;2023-03-02T00:09:38;39.03;;;22.00;;
32082;SDS011;18597;48.328;7.932;2023-03-02T00:12:05;44.07;;;24.40;;
32082;SDS011;18597;48.328;7.932;2023-03-02T00:14:31;35.27;;;21.67;;
32082;SDS011;18597;48.328;7.932;2023-03-02T00:16:57;40.70;;;24.00;;
32082;SDS011;18597;48.328;7.932;2023-03-02T00:19:23;47.73;;;24.50;;
32082;SDS011;18597;48.328;7.932;2023-03-02T00:21:49;37.23;;;22.43;;
32082;SDS011;18597;48.328;7.932;2023-03-02T00:24:15;38.43;;;21.53;;
32082;SDS011;18597;48.328;7.932;2023-03-02T00:26:41;39.13;;;22.53;;
32082;SDS011;18597;48.328;7.932;2023-03-02T00:29:06;36.43;;;20.40;;
32082;SDS011;18597;48.328;7.932;2023-03-02T00:31:32;35.83;;;21.80;;
32082;SDS011;18597;48.328;7.932;2023-03-02T00:33:58;40.53;;;21.60;;
32082;SDS011;18597;48.328;7.932;2023-03-02T00:36:24;39.77;;;20.70;;
32082;SDS011;18597;48.328;7.932;2023-03-02T00:38:50;46.63;;;21.13;;
32082;SDS011;18597;48.328;7.932;2023-03-02T00:41:16;71.30;;;37.13;;
32082;SDS011;18597;48.328;7.932;2023-03-02T00:43:45;56.40;;;30.20;;
32082;SDS011;18597;48.328;7.932;2023-03-02T00:46:13;37.87;;;21.90;;
32082;SDS011;18597;48.328;7.932;2023-03-02T00:48:41;30.20;;;20.63;;
32082;SDS011;18597;48.328;7.932;2023-03-02T00:51:07;39.23;;;22.40;;
32082;SDS011;18597;48.328;7.932;2023-03-02T00:53:34;64.47;;;27.77;;
32082;SDS011;18597;48.328;7.932;2023-03-02T00:56:01;62.43;;;26.23;;
32082;SDS011;18597;48.328;7.932;2023-03-02T00:58:29;46.13;;;25.40;;
32082;SDS011;18597;48.328;7.932;2023-03-02T01:00:56;42.80;;;22.73;;
32082;SDS011;18597;48.328;7.932;2023-03-02T01:03:22;40.20;;;23.40;;
32082;SDS011;18597;48.328;7.932;2023-03-02T01:05:49;46.53;;;24.33;;
32082;SDS011;18597;48.328;7.932;2023-03-02T01:08:20;49.70;;;24.07;;
32082;SDS011;18597;48.328;7.932;2023-03-02T01:10:47;44.30;;;23.50;;
32082;SDS011;18597;48.328;7.932;2023-03-02T01:13:13;39.67;;;22.43;;
32082;SDS011;18597;48.328;7.932;2023-03-02T01:15:39;43.03;;;23.13;;
32082;SDS011;18597;48.328;7.932;2023-03-02T01:18:05;46.77;;;24.37;;
32082;SDS011;18597;48.328;7.932;2023-03-02T01:20:31;44.80;;;21.50;;
32082;SDS011;18597;48.328;7.932;2023-03-02T01:22:57;36.33;;;20.40;;
32082;SDS011;18597;48.328;7.932;2023-03-02T01:25:23;49.57;;;23.47;;
32082;SDS011;18597;48.328;7.932;2023-03-02T01:27:48;40.90;;;23.70;;
32082;SDS011;18597;48.328;7.932;2023-03-02T01:30:15;40.50;;;21.70;;
32082;SDS011;18597;48.328;7.932;2023-03-02T01:32:41;43.03;;;24.43;;
32082;SDS011;18597;48.328;7.932;2023-03-02T01:35:06;36.70;;;22.03;;
32082;SDS011;18597;48.328;7.932;2023-03-02T01:37:33;38.43;;;21.87;;
32082;SDS011;18597;48.328;7.932;2023-03-02T01:39:59;35.00;;;18.67;;
32082;SDS011;18597;48.328;7.932;2023-03-02T01:42:32;38.47;;;18.00;;
32082;SDS011;18597;48.328;7.932;2023-03-02T01:45:02;35.90;;;20.03;;
32082;SDS011;18597;48.328;7.932;2023-03-02T01:47:31;33.20;;;17.27;;
32082;SDS011;18597;48.328;7.932;2023-03-02T01:50:05;32.87;;;19.50;;
32082;SDS011;18597;48.328;7.932;2023-03-02T01:52:43;33.30;;;19.00;;
32082;SDS011;18597;48.328;7.932;2023-03-02T01:55:11;31.57;;;17.37;;
32082;SDS011;18597;48.328;7.932;2023-03-02T01:57:43;32.73;;;18.20;;
32082;SDS011;18597;48.328;7.932;2023-03-02T02:00:15;33.57;;;18.80;;
32082;SDS011;18597;48.328;7.932;2023-03-02T02:02:47;30.10;;;17.30;;
32082;SDS011;18597;48.328;7.932;2023-03-02T02:05:18;34.60;;;21.00;;
32082;SDS011;18597;48.328;7.932;2023-03-02T02:07:48;29.73;;;17.80;;
32082;SDS011;18597;48.328;7.932;2023-03-02T02:10:14;32.80;;;17.77;;
32082;SDS011;18597;48.328;7.932;2023-03-02T02:12:40;32.40;;;20.60;;
32082;SDS011;18597;48.328;7.932;2023-03-02T02:15:06;38.33;;;20.23;;
32082;SDS011;18597;48.328;7.932;2023-03-02T02:17:32;35.53;;;20.10;;
32082;SDS011;18597;48.328;7.932;2023-03-02T02:20:34;31.40;;;18.67;;
32082;SDS011;18597;48.328;7.932;2023-03-02T02:23:39;28.07;;;17.73;;
32082;SDS011;18597;48.328;7.932;2023-03-02T02:26:12;29.83;;;18.87;;
32082;SDS011;18597;48.328;7.932;2023-03-02T02:28:52;28.87;;;17.20;;
32082;SDS011;18597;48.328;7.932;2023-03-02T02:31:32;33.83;;;17.70;;
32082;SDS011;18597;48.328;7.932;2023-03-02T02:34:20;25.73;;;16.23;;
32082;SDS011;18597;48.328;7.932;2023-03-02T02:37:12;35.73;;;17.27;;
32082;SDS011;18597;48.328;7.932;2023-03-02T02:39:48;39.57;;;20.60;;
32082;SDS011;18597;48.328;7.932;2023-03-02T02:42:20;37.33;;;20.03;;
32082;SDS011;18597;48.328;7.932;2023-03-02T02:44:55;40.57;;;20.00;;
32082;SDS011;18597;48.328;7.932;2023-03-02T02:47:23;38.37;;;19.37;;
32082;SDS011;18597;48.328;7.932;2023-03-02T02:49:51;26.20;;;16.67;;
32082;SDS011;18597;48.328;7.932;2023-03-02T02:52:19;30.40;;;19.00;;
32082;SDS011;18597;48.328;7.932;2023-03-02T02:54:49;34.53;;;18.97;;
32082;SDS011;18597;48.328;7.932;2023-03-02T02:57:18;37.90;;;18.17;;
32082;SDS011;18597;48.328;7.932;2023-03-02T02:59:50;34.23;;;20.17;;
32082;SDS011;18597;48.328;7.932;2023-03-02T03:02:21;36.87;;;19.43;;
32082;SDS011;18597;48.328;7.932;2023-03-02T03:04:50;36.03;;;20.80;;
32082;SDS011;18597;48.328;7.932;2023-03-02T03:07:20;31.37;;;17.70;;
32082;SDS011;18597;48.328;7.932;2023-03-02T03:09:57;35.30;;;19.47;;
32082;SDS011;18597;48.328;7.932;2023-03-02T03:12:40;34.37;;;19.23;;
32082;SDS011;18597;48.328;7.932;2023-03-02T03:15:07;33.07;;;19.20;;
32082;SDS011;18597;48.328;7.932;2023-03-02T03:17:35;26.73;;;17.13;;
32082;SDS011;18597;48.328;7.932;2023-03-02T03:20:01;30.33;;;18.17;;
32082;SDS011;18597;48.328;7.932;2023-03-02T03:22:33;31.83;;;17.13;;
32082;SDS011;18597;48.328;7.932;2023-03-02T03:25:02;30.70;;;16.43;;
32082;SDS011;18597;48.328;7.932;2023-03-02T03:27:28;32.23;;;18.77;;
32082;SDS011;18597;48.328;7.932;2023-03-02T03:29:54;35.73;;;19.30;;
32082;SDS011;18597;48.328;7.932;2023-03-02T03:32:20;35.23;;;18.97;;
32082;SDS011;18597;48.328;7.932;2023-03-02T03:34:46;33.57;;;18.83;;
32082;SDS011;18597;48.328;7.932;2023-03-02T03:37:14;36.93;;;19.63;;
32082;SDS011;18597;48.328;7.932;2023-03-02T03:39:43;36.77;;;18.83;;
32082;SDS011;18597;48.328;7.932;2023-03-02T03:42:09;33.47;;;18.47;;
32082;SDS011;18597;48.328;7.932;2023-03-02T03:44:34;29.60;;;17.80;;
32082;SDS011;18597;48.328;7.932;2023-03-02T03:47:00;33.27;;;18.90;;
32082;SDS011;18597;48.328;7.932;2023-03-02T03:49:26;33.63;;;18.23;;
32082;SDS011;18597;48.328;7.932;2023-03-02T03:51:52;36.20;;;20.13;;
32082;SDS011;18597;48.328;7.932;2023-03-02T03:54:18;36.07;;;19.43;;
32082;SDS011;18597;48.328;7.932;2023-03-02T03:56:45;30.43;;;17.80;;
32082;SDS011;18597;48.328;7.932;2023-03-02T03:59:14;31.27;;;18.63;;
32082;SDS011;18597;48.328;7.932;2023-03-02T04:01:45;59.50;;;19.20;;
32082;SDS011;18597;48.328;7.932;2023-03-02T04:04:20;36.87;;;20.10;;
32082;SDS011;18597;48.328;7.932;2023-03-02T04:06:51;34.47;;;20.50;;
32082;SDS011;18597;48.328;7.932;2023-03-02T04:09:17;40.87;;;21.60;;
32082;SDS011;18597;48.328;7.932;2023-03-02T04:11:44;38.63;;;22.53;;
32082;SDS011;18597;48.328;7.932;2023-03-02T04:14:13;35.63;;;21.93;;
32082;SDS011;18597;48.328;7.932;2023-03-02T04:16:40;46.43;;;23.73;;
32082;SDS011;18597;48.328;7.932;2023-03-02T04:19:07;41.80;;;22.93;;
32082;SDS011;18597;48.328;7.932;2023-03-02T04:21:36;39.40;;;22.63;;
32082;SDS011;18597;48.328;7.932;2023-03-02T04:24:04;41.90;;;23.50;;
32082;SDS011;18597;48.328;7.932;2023-03-02T04:26:31;38.80;;;21.83;;
32082;SDS011;18597;48.328;7.932;2023-03-02T04:28:57;37.60;;;21.63;;
32082;SDS011;18597;48.328;7.932;2023-03-02T04:31:23;38.07;;;22.70;;
32082;SDS011;18597;48.328;7.932;2023-03-02T04:33:49;43.93;;;24.80;;
32082;SDS011;18597;48.328;7.932;2023-03-02T04:36:15;45.07;;;23.70;;
32082;SDS011;18597;48.328;7.932;2023-03-02T04:38:41;36.83;;;22.50;;
32082;SDS011;18597;48.328;7.932;2023-03-02T04:41:07;35.33;;;21.77;;
32082;SDS011;18597;48.328;7.932;2023-03-02T04:43:33;39.27;;;23.60;;
32082;SDS011;18597;48.328;7.932;2023-03-02T04:45:58;41.03;;;22.37;;
32082;SDS011;18597;48.328;7.932;2023-03-02T04:48:24;47.10;;;24.47;;
32082;SDS011;18597;48.328;7.932;2023-03-02T04:50:50;40.00;;;23.47;;
32082;SDS011;18597;48.328;7.932;2023-03-02T04:53:16;39.80;;;23.63;;
32082;SDS011;18597;48.328;7.932;2023-03-02T04:55:42;36.57;;;22.13;;
32082;SDS011;18597;48.328;7.932;2023-03-02T04:58:08;37.47;;;22.80;;
32082;SDS011;18597;48.328;7.932;2023-03-02T05:00:34;40.22;;;22.98;;
32082;SDS011;18597;48.328;7.932;2023-03-02T05:03:00;43.63;;;23.30;;
32082;SDS011;18597;48.328;7.932;2023-03-02T05:05:28;41.00;;;24.37;;
32082;SDS011;18597;48.328;7.932;2023-03-02T05:07:54;43.07;;;23.37;;
32082;SDS011;18597;48.328;7.932;2023-03-02T05:10:22;43.00;;;24.03;;
32082;SDS011;18597;48.328;7.932;2023-03-02T05:12:50;40.07;;;23.47;;
32082;SDS011;18597;48.328;7.932;2023-03-02T05:15:20;40.40;;;22.97;;
32082;SDS011;18597;48.328;7.932;2023-03-02T05:17:47;40.47;;;24.27;;
32082;SDS011;18597;48.328;7.932;2023-03-02T05:20:13;36.47;;;21.60;;
32082;SDS011;18597;48.328;7.932;2023-03-02T05:22:39;37.17;;;21.90;;
32082;SDS011;18597;48.328;7.932;2023-03-02T05:25:05;40.23;;;24.00;;
32082;SDS011;18597;48.328;7.932;2023-03-02T05:27:31;44.30;;;23.57;;
32082;SDS011;18597;48.328;7.932;2023-03-02T05:29:57;48.57;;;25.53;;
32082;SDS011;18597;48.328;7.932;2023-03-02T05:32:23;52.07;;;27.40;;
32082;SDS011;18597;48.328;7.932;2023-03-02T05:34:49;45.23;;;24.33;;
32082;SDS011;18597;48.328;7.932;2023-03-02T05:37:14;44.70;;;24.97;;
32082;SDS011;18597;48.328;7.932;2023-03-02T05:39:40;47.17;;;25.27;;
32082;SDS011;18597;48.328;7.932;2023-03-02T05:42:06;48.33;;;25.40;;
32082;SDS011;18597;48.328;7.932;2023-03-02T05:44:33;39.70;;;23.20;;
32082;SDS011;18597;48.328;7.932;2023-03-02T05:46:59;45.33;;;25.80;;
32082;SDS011;18597;48.328;7.932;2023-03-02T05:49:25;42.60;;;25.37;;
32082;SDS011;18597;48.328;7.932;2023-03-02T05:51:51;43.03;;;25.90;;
32082;SDS011;18597;48.328;7.932;2023-03-02T05:54:16;44.83;;;25.73;;
32082;SDS011;18597;48.328;7.932;2023-03-02T05:56:42;49.77;;;26.30;;
32082;SDS011;18597;48.328;7.932;2023-03-02T05:59:08;62.77;;;29.70;;
32082;SDS011;18597;48.328;7.932;2023-03-02T06:01:34;61.00;;;29.87;;
32082;SDS011;18597;48.328;7.932;2023-03-02T06:04:00;48.33;;;26.70;;
32082;SDS011;18597;48.328;7.932;2023-03-02T06:06:26;53.37;;;28.67;;
32082;SDS011;18597;48.328;7.932;2023-03-02T06:08:52;48.60;;;26.17;;
32082;SDS011;18597;48.328;7.932;2023-03-02T06:11:18;49.20;;;28.10;;
32082;SDS011;18597;48.328;7.932;2023-03-02T06:13:44;47.23;;;27.37;;
32082;SDS011;18597;48.328;7.932;2023-03-02T06:16:10;52.27;;;26.87;;
32082;SDS011;18597;48.328;7.932;2023-03-02T06:18:36;45.90;;;26.83;;
32082;SDS011;18597;48.328;7.932;2023-03-02T06:21:02;44.97;;;25.70;;
32082;SDS011;18597;48.328;7.932;2023-03-02T06:23:29;47.37;;;26.30;;
32082;SDS011;18597;48.328;7.932;2023-03-02T06:25:55;50.23;;;27.70;;
32082;SDS011;18597;48.328;7.932;2023-03-02T06:28:23;47.00;;;27.23;;
32082;SDS011;18597;48.328;7.932;2023-03-02T06:30:49;51.57;;;29.50;;
32082;SDS011;18597;48.328;7.932;2023-03-02T06:33:16;46.70;;;25.83;;
32082;SDS011;18597;48.328;7.932;2023-03-02T06:35:45;50.07;;;28.00;;
32082;SDS011;18597;48.328;7.932;2023-03-02T06:38:11;47.73;;;25.67;;
32082;SDS011;18597;48.328;7.932;2023-03-02T06:40:37;45.97;;;27.13;;
32082;SDS011;18597;48.328;7.932;2023-03-02T06:43:03;50.93;;;28.60;;
32082;SDS011;18597;48.328;7.932;2023-03-02T06:45:29;48.73;;;26.70;;
32082;SDS011;18597;48.328;7.932;2023-03-02T06:47:57;46.27;;;26.40;;
32082;SDS011;18597;48.328;7.932;2023-03-02T06:50:25;52.37;;;28.03;;
32082;SDS011;18597;48.328;7.932;2023-03-02T06:52:52;44.03;;;26.40;;
32082;SDS011;18597;48.328;7.932;2023-03-02T06:55:18;57.77;;;27.80;;
32082;SDS011;18597;48.328;7.932;2023-03-02T06:57:43;51.70;;;27.90;;
32082;SDS011;18597;48.328;7.932;2023-03-02T07:00:10;51.50;;;28.50;;
32082;SDS011;18597;48.328;7.932;2023-03-02T07:02:43;44.23;;;25.30;;
32082;SDS011;18597;48.328;7.932;2023-03-02T07:05:09;41.40;;;24.13;;
32082;SDS011;18597;48.328;7.932;2023-03-02T07:07:35;48.63;;;26.33;;
32082;SDS011;18597;48.328;7.932;2023-03-02T07:10:02;48.60;;;26.00;;
32082;SDS011;18597;48.328;7.932;2023-03-02T07:12:29;42.27;;;25.77;;
32082;SDS011;18597;48.328;7.932;2023-03-02T07:14:55;48.90;;;27.17;;
32082;SDS011;18597;48.328;7.932;2023-03-02T07:17:21;48.47;;;26.50;;
32082;SDS011;18597;48.328;7.932;2023-03-02T07:19:47;47.03;;;28.70;;
32082;SDS011;18597;48.328;7.932;2023-03-02T07:22:13;49.43;;;27.50;;
32082;SDS011;18597;48.328;7.932;2023-03-02T07:24:39;52.13;;;28.90;;
32082;SDS011;18597;48.328;7.932;2023-03-02T07:27:04;52.03;;;29.50;;
32082;SDS011;18597;48.328;7.932;2023-03-02T07:29:30;57.80;;;32.00;;
32082;SDS011;18597;48.328;7.932;2023-03-02T07:31:56;64.10;;;31.67;;
32082;SDS011;18597;48.328;7.932;2023-03-02T07:34:25;58.83;;;30.43;;
32082;SDS011;18597;48.328;7.932;2023-03-02T07:36:51;63.23;;;30.83;;
32082;SDS011;18597;48.328;7.932;2023-03-02T07:39:18;54.20;;;30.17;;
32082;SDS011;18597;48.328;7.932;2023-03-02T07:41:44;50.40;;;29.17;;
32082;SDS011;18597;48.328;7.932;2023-03-02T07:44:10;49.80;;;29.47;;
32082;SDS011;18597;48.328;7.932;2023-03-02T07:46:37;46.83;;;27.67;;
32082;SDS011;18597;48.328;7.932;2023-03-02T07:49:03;54.47;;;30.30;;
32082;SDS011;18597;48.328;7.932;2023-03-02T07:51:28;50.13;;;29.00;;
32082;SDS011;18597;48.328;7.932;2023-03-02T07:53:54;46.60;;;26.47;;
32082;SDS011;18597;48.328;7.932;2023-03-02T07:56:20;54.73;;;27.53;;
32082;SDS011;18597;48.328;7.932;2023-03-02T07:58:46;50.13;;;29.20;;
32082;SDS011;18597;48.328;7.932;2023-03-02T08:01:12;48.03;;;28.73;;
32082;SDS011;18597;48.328;7.932;2023-03-02T08:03:38;54.10;;;30.90;;
32082;SDS011;18597;48.328;7.932;2023-03-02T08:06:05;50.07;;;27.37;;
32082;SDS011;18597;48.328;7.932;2023-03-02T08:08:34;50.03;;;27.03;;
32082;SDS011;18597;48.328;7.932;2023-03-02T08:11:03;61.43;;;29.33;;
32082;SDS011;18597;48.328;7.932;2023-03-02T08:13:31;68.50;;;30.20;;
32082;SDS011;18597;48.328;7.932;2023-03-02T08:15:59;58.67;;;30.43;;
32082;SDS011;18597;48.328;7.932;2023-03-02T08:18:26;59.60;;;29.57;;
32082;SDS011;18597;48.328;7.932;2023-03-02T08:20:52;50.73;;;29.30;;
32082;SDS011;18597;48.328;7.932;2023-03-02T08:23:18;54.90;;;30.17;;
32082;SDS011;18597;48.328;7.932;2023-03-02T08:25:45;56.07;;;31.47;;
32082;SDS011;18597;48.328;7.932;2023-03-02T08:28:11;55.37;;;30.37;;
32082;SDS011;18597;48.328;7.932;2023-03-02T08:30:37;59.30;;;31.30;;
32082;SDS011;18597;48.328;7.932;2023-03-02T08:33:02;57.40;;;30.53;;
32082;SDS011;18597;48.328;7.932;2023-03-02T08:35:28;62.73;;;31.57;;
32082;SDS011;18597;48.328;7.932;2023-03-02T08:37:54;48.30;;;27.27;;
32082;SDS011;18597;48.328;7.932;2023-03-02T08:40:20;57.87;;;30.57;;
32082;SDS011;18597;48.328;7.932;2023-03-02T08:42:46;49.03;;;28.73;;
32082;SDS011;18597;48.328;7.932;2023-03-02T08:45:13;50.60;;;27.43;;
32082;SDS011;18597;48.328;7.932;2023-03-02T08:47:39;56.70;;;31.30;;
32082;SDS011;18597;48.328;7.932;2023-03-02T08:50:05;44.83;;;28.00;;
32082;SDS011;18597;48.328;7.932;2023-03-02T08:52:32;51.90;;;30.53;;
32082;SDS011;18597;48.328;7.932;2023-03-02T08:54:59;54.67;;;30.30;;
32082;SDS011;18597;48.328;7.932;2023-03-02T08:57:24;56.97;;;30.70;;
32082;SDS011;18597;48.328;7.932;2023-03-02T08:59:50;54.90;;;30.90;;
32082;SDS011;18597;48.328;7.932;2023-03-02T09:02:16;51.67;;;30.17;;
32082;SDS011;18597;48.328;7.932;2023-03-02T09:04:42;60.07;;;30.80;;
32082;SDS011;18597;48.328;7.932;2023-03-02T09:07:08;52.20;;;29.73;;
32082;SDS011;18597;48.328;7.932;2023-03-02T09:09:34;50.80;;;29.83;;
32082;SDS011;18597;48.328;7.932;2023-03-02T09:12:00;57.70;;;30.70;;
32082;SDS011;18597;48.328;7.932;2023-03-02T09:14:26;55.30;;;30.33;;
32082;SDS011;18597;48.328;7.932;2023-03-02T09:16:52;56.33;;;30.80;;
32082;SDS011;18597;48.328;7.932;2023-03-02T09:19:18;56.43;;;32.00;;
32082;SDS011;18597;48.328;7.932;2023-03-02T09:21:44;57.50;;;31.57;;
32082;SDS011;18597;48.328;7.932;2023-03-02T09:26:46;54.73;;;30.50;;
32082;SDS011;18597;48.328;7.932;2023-03-02T09:29:12;68.50;;;30.40;;
32082;SDS011;18597;48.328;7.932;2023-03-02T09:31:38;53.03;;;30.43;;
32082;SDS011;18597;48.328;7.932;2023-03-02T09:34:04;53.40;;;31.27;;
32082;SDS011;18597;48.328;7.932;2023-03-02T09:36:30;51.73;;;29.80;;
32082;SDS011;18597;48.328;7.932;2023-03-02T09:38:56;54.43;;;29.90;;
32082;SDS011;18597;48.328;7.932;2023-03-02T09:41:27;62.93;;;33.20;;
32082;SDS011;18597;48.328;7.932;2023-03-02T09:50:43;53.03;;;29.60;;
32082;SDS011;18597;48.328;7.932;2023-03-02T09:53:27;50.83;;;30.30;;
32082;SDS011;18597;48.328;7.932;2023-03-02T09:56:01;55.13;;;32.20;;
32082;SDS011;18597;48.328;7.932;2023-03-02T09:58:30;48.20;;;28.63;;
32082;SDS011;18597;48.328;7.932;2023-03-02T10:01:02;55.33;;;28.87;;
32082;SDS011;18597;48.328;7.932;2023-03-02T10:03:39;61.13;;;32.27;;
32082;SDS011;18597;48.328;7.932;2023-03-02T10:06:13;53.73;;;30.20;;
32082;SDS011;18597;48.328;7.932;2023-03-02T10:08:39;55.73;;;31.17;;
32082;SDS011;18597;48.328;7.932;2023-03-02T10:14:02;55.90;;;30.90;;
32082;SDS011;18597;48.328;7.932;2023-03-02T10:17:02;50.80;;;27.30;;
32082;SDS011;18597;48.328;7.932;2023-03-02T10:20:02;50.17;;;31.97;;
32082;SDS011;18597;48.328;7.932;2023-03-02T10:22:37;61.40;;;32.63;;
32082;SDS011;18597;48.328;7.932;2023-03-02T10:27:49;56.47;;;30.60;;
32082;SDS011;18597;48.328;7.932;2023-03-02T10:30:25;65.70;;;32.07;;
32082;SDS011;18597;48.328;7.932;2023-03-02T10:33:01;50.03;;;30.57;;
32082;SDS011;18597;48.328;7.932;2023-03-02T10:35:39;61.80;;;32.47;;
32082;SDS011;18597;48.328;7.932;2023-03-02T10:38:15;47.40;;;30.07;;
32082;SDS011;18597;48.328;7.932;2023-03-02T10:40:46;55.60;;;31.57;;
32082;SDS011;18597;48.328;7.932;2023-03-02T10:43:57;50.80;;;31.50;;
32082;SDS011;18597;48.328;7.932;2023-03-02T10:46:11;54.60;;;31.23;;
32082;SDS011;18597;48.328;7.932;2023-03-02T10:48:46;61.53;;;31.77;;
32082;SDS011;18597;48.328;7.932;2023-03-02T10:51:24;76.67;;;31.50;;
32082;SDS011;18597;48.328;7.932;2023-03-02T10:54:01;57.43;;;32.30;;
32082;SDS011;18597;48.328;7.932;2023-03-02T10:56:35;51.00;;;30.87;;
32082;SDS011;18597;48.328;7.932;2023-03-02T10:59:38;43.97;;;28.80;;
32082;SDS011;18597;48.328;7.932;2023-03-02T11:02:17;50.90;;;29.93;;
32082;SDS011;18597;48.328;7.932;2023-03-02T11:04:53;63.03;;;31.97;;
32082;SDS011;18597;48.328;7.932;2023-03-02T11:07:22;62.67;;;33.73;;
32082;SDS011;18597;48.328;7.932;2023-03-02T11:10:01;54.60;;;32.13;;
32082;SDS011;18597;48.328;7.932;2023-03-02T11:12:44;57.17;;;31.90;;
32082;SDS011;18597;48.328;7.932;2023-03-02T11:15:46;48.00;;;29.70;;
32082;SDS011;18597;48.328;7.932;2023-03-02T11:18:05;57.93;;;32.20;;
32082;SDS011;18597;48.328;7.932;2023-03-02T11:20:50;53.40;;;30.13;;
32082;SDS011;18597;48.328;7.932;2023-03-02T11:23:24;58.27;;;30.80;;
32082;SDS011;18597;48.328;7.932;2023-03-02T11:26:28;53.03;;;30.20;;
32082;SDS011;18597;48.328;7.932;2023-03-02T11:29:02;54.57;;;31.60;;
32082;SDS011;18597;48.328;7.932;2023-03-02T11:32:02;55.77;;;34.13;;
32082;SDS011;18597;48.328;7.932;2023-03-02T11:35:13;62.70;;;31.73;;
32082;SDS011;18597;48.328;7.932;2023-03-02T11:37:55;53.37;;;32.10;;
32082;SDS011;18597;48.328;7.932;2023-03-02T11:40:47;57.97;;;32.17;;
32082;SDS011;18597;48.328;7.932;2023-03-02T11:43:50;64.23;;;34.50;;
32082;SDS011;18597;48.328;7.932;2023-03-02T11:46:21;53.27;;;33.57;;
32082;SDS011;18597;48.328;7.932;2023-03-02T11:48:52;58.53;;;33.80;;
32082;SDS011;18597;48.328;7.932;2023-03-02T11:51:22;55.50;;;31.40;;
32082;SDS011;18597;48.328;7.932;2023-03-02T11:57:03;55.13;;;34.03;;
32082;SDS011;18597;48.328;7.932;2023-03-02T11:59:29;61.07;;;31.33;;
32082;SDS011;18597;48.328;7.932;2023-03-02T12:01:57;53.77;;;31.00;;
32082;SDS011;18597;48.328;7.932;2023-03-02T12:04:33;51.17;;;31.47;;
32082;SDS011;18597;48.328;7.932;2023-03-02T12:07:03;52.63;;;33.27;;
32082;SDS011;18597;48.328;7.932;2023-03-02T12:10:07;65.40;;;35.17;;
32082;SDS011;18597;48.328;7.932;2023-03-02T12:13:02;53.60;;;31.57;;
32082;SDS011;18597;48.328;7.932;2023-03-02T12:15:43;59.43;;;33.67;;
32082;SDS011;18597;48.328;7.932;2023-03-02T12:18:28;54.53;;;32.97;;
32082;SDS011;18597;48.328;7.932;2023-03-02T12:21:08;56.43;;;33.10;;
32082;SDS011;18597;48.328;7.932;2023-03-02T12:23:51;52.00;;;30.73;;
32082;SDS011;18597;48.328;7.932;2023-03-02T12:26:25;52.00;;;32.47;;
32082;SDS011;18597;48.328;7.932;2023-03-02T12:31:50;52.77;;;31.47;;
32082;SDS011;18597;48.328;7.932;2023-03-02T12:36:59;60.73;;;30.50;;
32082;SDS011;18597;48.328;7.932;2023-03-02T12:39:44;60.50;;;31.13;;
32082;SDS011;18597;48.328;7.932;2023-03-02T12:49:32;68.00;;;35.50;;
32082;SDS011;18597;48.328;7.932;2023-03-02T12:51:55;60.70;;;31.37;;
32082;SDS011;18597;48.328;7.932;2023-03-02T12:54:26;51.17;;;29.50;;
32082;SDS011;18597;48.328;7.932;2023-03-02T12:57:26;55.07;;;33.63;;
32082;SDS011;18597;48.328;7.932;2023-03-02T13:00:00;47.03;;;30.57;;
32082;SDS011;18597;48.328;7.932;2023-03-02T13:02:29;52.57;;;31.77;;
32082;SDS011;18597;48.328;7.932;2023-03-02T13:05:00;47.93;;;31.37;;
32082;SDS011;18597;48.328;7.932;2023-03-02T13:07:34;54.00;;;30.77;;
32082;SDS011;18597;48.328;7.932;2023-03-02T13:10:11;46.83;;;28.80;;
32082;SDS011;18597;48.328;7.932;2023-03-02T13:13:00;45.20;;;28.67;;
32082;SDS011;18597;48.328;7.932;2023-03-02T13:15:46;54.63;;;30.80;;
32082;SDS011;18597;48.328;7.932;2023-03-02T13:18:15;51.07;;;32.13;;
32082;SDS011;18597;48.328;7.932;2023-03-02T13:20:43;64.10;;;39.37;;
32082;SDS011;18597;48.328;7.932;2023-03-02T13:23:11;55.73;;;33.30;;
32082;SDS011;18597;48.328;7.932;2023-03-02T13:25:46;57.30;;;33.40;;
32082;SDS011;18597;48.328;7.932;2023-03-02T13:28:34;53.27;;;31.30;;
32082;SDS011;18597;48.328;7.932;2023-03-02T13:31:03;49.00;;;28.50;;
32082;SDS011;18597;48.328;7.932;2023-03-02T13:33:47;53.20;;;29.80;;
32082;SDS011;18597;48.328;7.932;2023-03-02T13:36:17;51.63;;;30.30;;
32082;SDS011;18597;48.328;7.932;2023-03-02T13:38:47;57.10;;;32.20;;
32082;SDS011;18597;48.328;7.932;2023-03-02T13:41:21;51.17;;;30.73;;
32082;SDS011;18597;48.328;7.932;2023-03-02T13:43:49;57.57;;;31.80;;
32082;SDS011;18597;48.328;7.932;2023-03-02T13:48:56;51.33;;;29.60;;
32082;SDS011;18597;48.328;7.932;2023-03-02T13:51:25;50.80;;;31.63;;
32082;SDS011;18597;48.328;7.932;2023-03-02T13:53:58;52.50;;;32.90;;
32082;SDS011;18597;48.328;7.932;2023-03-02T13:56:29;48.40;;;27.87;;
32082;SDS011;18597;48.328;7.932;2023-03-02T13:58:59;58.10;;;31.60;;
32082;SDS011;18597;48.328;7.932;2023-03-02T14:01:26;55.07;;;31.40;;
32082;SDS011;18597;48.328;7.932;2023-03-02T14:03:52;61.90;;;30.50;;
32082;SDS011;18597;48.328;7.932;2023-03-02T14:06:18;54.67;;;31.00;;
32082;SDS011;18597;48.328;7.932;2023-03-02T14:08:45;49.00;;;31.17;;
32082;SDS011;18597;48.328;7.932;2023-03-02T14:11:12;54.67;;;31.47;;
32082;SDS011;18597;48.328;7.932;2023-03-02T14:13:41;52.33;;;30.87;;
32082;SDS011;18597;48.328;7.932;2023-03-02T14:16:12;66.73;;;33.63;;
32082;SDS011;18597;48.328;7.932;2023-03-02T14:18:41;67.00;;;33.10;;
32082;SDS011;18597;48.328;7.932;2023-03-02T14:21:12;55.50;;;33.67;;
32082;SDS011;18597;48.328;7.932;2023-03-02T14:23:43;55.07;;;32.93;;
32082;SDS011;18597;48.328;7.932;2023-03-02T14:26:16;63.77;;;32.67;;
32082;SDS011;18597;48.328;7.932;2023-03-02T14:29:19;57.07;;;31.57;;
32082;SDS011;18597;48.328;7.932;2023-03-02T14:31:54;55.93;;;30.13;;
32082;SDS011;18597;48.328;7.932;2023-03-02T14:34:24;59.77;;;31.67;;
32082;SDS011;18597;48.328;7.932;2023-03-02T14:36:51;59.57;;;32.50;;
32082;SDS011;18597;48.328;7.932;2023-03-02T14:39:22;63.50;;;32.47;;
32082;SDS011;18597;48.328;7.932;2023-03-02T14:42:01;56.83;;;31.43;;
32082;SDS011;18597;48.328;7.932;2023-03-02T14:44:29;51.80;;;31.03;;
32082;SDS011;18597;48.328;7.932;2023-03-02T14:46:55;56.87;;;29.33;;
32082;SDS011;18597;48.328;7.932;2023-03-02T14:49:22;53.60;;;32.10;;
32082;SDS011;18597;48.328;7.932;2023-03-02T14:51:53;54.20;;;32.40;;
32082;SDS011;18597;48.328;7.932;2023-03-02T14:54:51;55.60;;;33.43;;
32082;SDS011;18597;48.328;7.932;2023-03-02T14:57:22;50.40;;;30.67;;
32082;SDS011;18597;48.328;7.932;2023-03-02T14:59:51;60.73;;;32.10;;
32082;SDS011;18597;48.328;7.932;2023-03-02T15:02:18;51.20;;;30.77;;
32082;SDS011;18597;48.328;7.932;2023-03-02T15:04:46;58.37;;;35.90;;
32082;SDS011;18597;48.328;7.932;2023-03-02T15:07:13;49.97;;;30.67;;
32082;SDS011;18597;48.328;7.932;2023-03-02T15:09:40;56.30;;;32.17;;
32082;SDS011;18597;48.328;7.932;2023-03-02T15:12:09;59.67;;;32.30;;
32082;SDS011;18597;48.328;7.932;2023-03-02T15:14:35;56.60;;;30.50;;